sensor_id;sensor_type;location;lat;lon;timestamp;P1;durP1;ratioP1;P2;durP2;ratioP2
19609;SDS011;9952;47.122;-1.638;2023-03-31T00:03:20;58.03;;;7.60;;
19609;SDS011;9952;47.122;-1.638;2023-03-31T00:08:01;49.10;;;8.00;;
19609;SDS011;9952;47.122;-1.638;2023-03-31T00:12:42;48.10;;;8.00;;
19609;SDS011;9952;47.122;-1.638;2023-03-31T00:17:23;47.40;;;8.67;;
19609;SDS011;9952;47.122;-1.638;2023-03-31T00:22:03;54.13;;;9.70;;
19609;SDS011;9952;47.122;-1.638;2023-03-31T00:26:44;63.40;;;9.97;;
19609;SDS011;9952;47.122;-1.638;2023-03-31T00:31:25;47.37;;;8.07;;
19609;SDS011;9952;47.122;-1.638;2023-03-31T00:36:07;53.17;;;8.90;;
19609;SDS011;9952;47.122;-1.638;2023-03-31T00:40:48;55.77;;;9.17;;
19609;SDS011;9952;47.122;-1.638;2023-03-31T00:45:29;73.10;;;10.60;;
19609;SDS011;9952;47.122;-1.638;2023-03-31T00:50:18;45.33;;;8.07;;
19609;SDS011;9952;47.122;-1.638;2023-03-31T00:55:09;53.03;;;9.50;;
19609;SDS011;9952;47.122;-1.638;2023-03-31T00:59:57;57.80;;;10.43;;
19609;SDS011;9952;47.122;-1.638;2023-03-31T01:04:42;75.93;;;10.97;;
19609;SDS011;9952;47.122;-1.638;2023-03-31T01:09:26;69.20;;;9.87;;
19609;SDS011;9952;47.122;-1.638;2023-03-31T01:14:14;69.23;;;10.17;;
19609;SDS011;9952;47.122;-1.638;2023-03-31T01:18:55;54.87;;;9.67;;
19609;SDS011;9952;47.122;-1.638;2023-03-31T01:28:25;72.50;;;10.87;;
19609;SDS011;9952;47.122;-1.638;2023-03-31T01:38:26;66.20;;;10.57;;
19609;SDS011;9952;47.122;-1.638;2023-03-31T01:48:18;71.63;;;11.23;;
19609;SDS011;9952;47.122;-1.638;2023-03-31T01:53:17;62.27;;;11.47;;
19609;SDS011;9952;47.122;-1.638;2023-03-31T01:58:08;65.23;;;11.60;;
19609;SDS011;9952;47.122;-1.638;2023-03-31T02:03:08;67.50;;;11.53;;
19609;SDS011;9952;47.122;-1.638;2023-03-31T02:08:00;80.77;;;11.27;;
19609;SDS011;9952;47.122;-1.638;2023-03-31T02:12:49;78.03;;;12.17;;
19609;SDS011;9952;47.122;-1.638;2023-03-31T02:17:31;62.80;;;11.27;;
19609;SDS011;9952;47.122;-1.638;2023-03-31T02:22:12;70.90;;;11.53;;
19609;SDS011;9952;47.122;-1.638;2023-03-31T02:26:59;61.57;;;9.87;;
19609;SDS011;9952;47.122;-1.638;2023-03-31T02:32:00;74.13;;;11.43;;
19609;SDS011;9952;47.122;-1.638;2023-03-31T02:36:49;60.93;;;10.67;;
19609;SDS011;9952;47.122;-1.638;2023-03-31T02:41:30;72.57;;;11.40;;
19609;SDS011;9952;47.122;-1.638;2023-03-31T02:46:11;67.83;;;10.23;;
19609;SDS011;9952;47.122;-1.638;2023-03-31T02:56:06;68.40;;;11.17;;
19609;SDS011;9952;47.122;-1.638;2023-03-31T03:01:26;80.07;;;10.07;;
19609;SDS011;9952;47.122;-1.638;2023-03-31T03:11:25;65.07;;;11.60;;
19609;SDS011;9952;47.122;-1.638;2023-03-31T03:16:24;64.67;;;10.00;;
19609;SDS011;9952;47.122;-1.638;2023-03-31T03:21:11;71.90;;;11.37;;
19609;SDS011;9952;47.122;-1.638;2023-03-31T03:25:52;62.63;;;9.97;;
19609;SDS011;9952;47.122;-1.638;2023-03-31T03:30:33;58.33;;;9.30;;
19609;SDS011;9952;47.122;-1.638;2023-03-31T03:35:14;60.83;;;9.27;;
19609;SDS011;9952;47.122;-1.638;2023-03-31T03:39:55;64.33;;;8.90;;
19609;SDS011;9952;47.122;-1.638;2023-03-31T03:44:36;62.40;;;9.70;;
19609;SDS011;9952;47.122;-1.638;2023-03-31T03:49:17;56.27;;;9.27;;
19609;SDS011;9952;47.122;-1.638;2023-03-31T03:53:58;62.43;;;9.90;;
19609;SDS011;9952;47.122;-1.638;2023-03-31T03:58:38;70.27;;;9.40;;
19609;SDS011;9952;47.122;-1.638;2023-03-31T04:03:19;74.93;;;11.17;;
19609;SDS011;9952;47.122;-1.638;2023-03-31T04:08:00;70.00;;;11.93;;
19609;SDS011;9952;47.122;-1.638;2023-03-31T04:12:41;62.57;;;8.80;;
19609;SDS011;9952;47.122;-1.638;2023-03-31T04:17:22;67.30;;;10.10;;
19609;SDS011;9952;47.122;-1.638;2023-03-31T04:22:11;67.33;;;9.87;;
19609;SDS011;9952;47.122;-1.638;2023-03-31T04:26:54;55.80;;;9.43;;
19609;SDS011;9952;47.122;-1.638;2023-03-31T04:31:35;59.87;;;9.60;;
19609;SDS011;9952;47.122;-1.638;2023-03-31T04:36:17;60.87;;;10.20;;
19609;SDS011;9952;47.122;-1.638;2023-03-31T04:40:58;64.63;;;9.63;;
19609;SDS011;9952;47.122;-1.638;2023-03-31T04:45:39;45.93;;;7.47;;
19609;SDS011;9952;47.122;-1.638;2023-03-31T04:50:20;61.93;;;7.97;;
19609;SDS011;9952;47.122;-1.638;2023-03-31T04:55:01;57.00;;;9.00;;
19609;SDS011;9952;47.122;-1.638;2023-03-31T04:59:42;46.97;;;8.27;;
19609;SDS011;9952;47.122;-1.638;2023-03-31T05:04:22;48.83;;;7.70;;
19609;SDS011;9952;47.122;-1.638;2023-03-31T05:09:03;60.13;;;8.73;;
19609;SDS011;9952;47.122;-1.638;2023-03-31T05:13:44;59.07;;;8.97;;
19609;SDS011;9952;47.122;-1.638;2023-03-31T05:18:25;54.93;;;7.60;;
19609;SDS011;9952;47.122;-1.638;2023-03-31T05:23:06;69.97;;;10.57;;
19609;SDS011;9952;47.122;-1.638;2023-03-31T05:27:47;59.40;;;8.97;;
19609;SDS011;9952;47.122;-1.638;2023-03-31T05:32:28;56.03;;;8.00;;
19609;SDS011;9952;47.122;-1.638;2023-03-31T05:37:09;51.67;;;8.30;;
19609;SDS011;9952;47.122;-1.638;2023-03-31T05:41:50;66.30;;;8.83;;
19609;SDS011;9952;47.122;-1.638;2023-03-31T05:46:31;46.50;;;7.27;;
19609;SDS011;9952;47.122;-1.638;2023-03-31T05:51:12;49.37;;;7.40;;
19609;SDS011;9952;47.122;-1.638;2023-03-31T05:55:56;49.87;;;7.57;;
19609;SDS011;9952;47.122;-1.638;2023-03-31T06:00:38;44.27;;;6.30;;
19609;SDS011;9952;47.122;-1.638;2023-03-31T06:05:19;40.37;;;6.73;;
19609;SDS011;9952;47.122;-1.638;2023-03-31T06:10:02;40.30;;;5.37;;
19609;SDS011;9952;47.122;-1.638;2023-03-31T06:14:42;29.47;;;3.83;;
19609;SDS011;9952;47.122;-1.638;2023-03-31T06:19:23;30.70;;;4.63;;
19609;SDS011;9952;47.122;-1.638;2023-03-31T06:24:04;24.57;;;4.27;;
19609;SDS011;9952;47.122;-1.638;2023-03-31T06:28:45;21.50;;;3.47;;
19609;SDS011;9952;47.122;-1.638;2023-03-31T06:33:26;27.03;;;4.90;;
19609;SDS011;9952;47.122;-1.638;2023-03-31T06:38:07;30.50;;;4.83;;
19609;SDS011;9952;47.122;-1.638;2023-03-31T06:42:48;31.73;;;5.60;;
19609;SDS011;9952;47.122;-1.638;2023-03-31T06:47:28;52.90;;;6.73;;
19609;SDS011;9952;47.122;-1.638;2023-03-31T06:52:10;47.63;;;6.90;;
19609;SDS011;9952;47.122;-1.638;2023-03-31T06:56:50;55.40;;;9.03;;
19609;SDS011;9952;47.122;-1.638;2023-03-31T07:01:31;53.57;;;8.57;;
19609;SDS011;9952;47.122;-1.638;2023-03-31T07:06:16;47.07;;;7.40;;
19609;SDS011;9952;47.122;-1.638;2023-03-31T07:10:57;66.37;;;8.70;;
19609;SDS011;9952;47.122;-1.638;2023-03-31T07:15:39;62.07;;;9.93;;
19609;SDS011;9952;47.122;-1.638;2023-03-31T07:20:20;56.83;;;8.50;;
19609;SDS011;9952;47.122;-1.638;2023-03-31T07:25:01;49.67;;;7.83;;
19609;SDS011;9952;47.122;-1.638;2023-03-31T07:29:42;49.53;;;8.27;;
19609;SDS011;9952;47.122;-1.638;2023-03-31T07:34:23;66.10;;;8.37;;
19609;SDS011;9952;47.122;-1.638;2023-03-31T07:39:05;56.03;;;8.50;;
19609;SDS011;9952;47.122;-1.638;2023-03-31T07:43:46;57.00;;;7.80;;
19609;SDS011;9952;47.122;-1.638;2023-03-31T07:48:27;46.67;;;7.13;;
19609;SDS011;9952;47.122;-1.638;2023-03-31T07:53:08;38.77;;;6.90;;
19609;SDS011;9952;47.122;-1.638;2023-03-31T07:57:49;36.13;;;5.77;;
19609;SDS011;9952;47.122;-1.638;2023-03-31T08:02:30;45.20;;;5.57;;
19609;SDS011;9952;47.122;-1.638;2023-03-31T08:07:11;32.07;;;5.17;;
19609;SDS011;9952;47.122;-1.638;2023-03-31T08:11:53;36.97;;;5.47;;
19609;SDS011;9952;47.122;-1.638;2023-03-31T08:16:34;37.00;;;6.13;;
19609;SDS011;9952;47.122;-1.638;2023-03-31T08:21:15;57.43;;;7.33;;
19609;SDS011;9952;47.122;-1.638;2023-03-31T08:26:17;38.33;;;5.70;;
19609;SDS011;9952;47.122;-1.638;2023-03-31T08:31:02;34.80;;;5.63;;
19609;SDS011;9952;47.122;-1.638;2023-03-31T08:35:44;39.33;;;7.10;;
19609;SDS011;9952;47.122;-1.638;2023-03-31T08:40:25;44.83;;;5.70;;
19609;SDS011;9952;47.122;-1.638;2023-03-31T08:50:13;47.30;;;8.23;;
19609;SDS011;9952;47.122;-1.638;2023-03-31T08:54:57;41.13;;;6.47;;
19609;SDS011;9952;47.122;-1.638;2023-03-31T08:59:43;42.47;;;7.33;;
19609;SDS011;9952;47.122;-1.638;2023-03-31T09:09:21;41.27;;;7.83;;
19609;SDS011;9952;47.122;-1.638;2023-03-31T09:19:44;50.37;;;7.53;;
19609;SDS011;9952;47.122;-1.638;2023-03-31T09:29:54;48.43;;;8.10;;
19609;SDS011;9952;47.122;-1.638;2023-03-31T09:34:43;19.73;;;3.00;;
19609;SDS011;9952;47.122;-1.638;2023-03-31T09:39:26;28.07;;;3.87;;
19609;SDS011;9952;47.122;-1.638;2023-03-31T09:44:11;20.00;;;2.70;;
19609;SDS011;9952;47.122;-1.638;2023-03-31T09:49:05;16.37;;;2.37;;
19609;SDS011;9952;47.122;-1.638;2023-03-31T09:53:55;21.13;;;3.33;;
19609;SDS011;9952;47.122;-1.638;2023-03-31T09:58:59;32.50;;;4.23;;
19609;SDS011;9952;47.122;-1.638;2023-03-31T10:03:48;46.37;;;6.33;;
19609;SDS011;9952;47.122;-1.638;2023-03-31T10:13:41;47.77;;;7.00;;
19609;SDS011;9952;47.122;-1.638;2023-03-31T10:18:33;37.63;;;5.23;;
19609;SDS011;9952;47.122;-1.638;2023-03-31T10:23:23;43.73;;;6.20;;
19609;SDS011;9952;47.122;-1.638;2023-03-31T10:28:10;42.60;;;6.47;;
19609;SDS011;9952;47.122;-1.638;2023-03-31T10:32:54;37.40;;;6.23;;
19609;SDS011;9952;47.122;-1.638;2023-03-31T10:37:35;38.73;;;5.70;;
19609;SDS011;9952;47.122;-1.638;2023-03-31T10:42:18;41.83;;;5.83;;
19609;SDS011;9952;47.122;-1.638;2023-03-31T10:47:15;37.47;;;6.27;;
19609;SDS011;9952;47.122;-1.638;2023-03-31T10:51:58;39.87;;;6.00;;
19609;SDS011;9952;47.122;-1.638;2023-03-31T10:56:43;34.00;;;5.93;;
19609;SDS011;9952;47.122;-1.638;2023-03-31T11:11:27;38.53;;;6.63;;
19609;SDS011;9952;47.122;-1.638;2023-03-31T11:47:35;34.63;;;6.57;;
19609;SDS011;9952;47.122;-1.638;2023-03-31T11:52:26;28.00;;;5.87;;
19609;SDS011;9952;47.122;-1.638;2023-03-31T11:57:16;35.23;;;6.00;;
19609;SDS011;9952;47.122;-1.638;2023-03-31T12:16:49;35.33;;;5.40;;
19609;SDS011;9952;47.122;-1.638;2023-03-31T12:21:32;35.10;;;6.07;;
19609;SDS011;9952;47.122;-1.638;2023-03-31T12:26:58;39.47;;;6.47;;
19609;SDS011;9952;47.122;-1.638;2023-03-31T12:31:27;42.20;;;5.80;;
19609;SDS011;9952;47.122;-1.638;2023-03-31T12:41:13;38.63;;;5.70;;
19609;SDS011;9952;47.122;-1.638;2023-03-31T12:51:07;32.57;;;5.80;;
19609;SDS011;9952;47.122;-1.638;2023-03-31T12:56:17;33.37;;;5.40;;
19609;SDS011;9952;47.122;-1.638;2023-03-31T13:05:56;30.73;;;5.20;;
19609;SDS011;9952;47.122;-1.638;2023-03-31T13:10:54;29.40;;;5.23;;
19609;SDS011;9952;47.122;-1.638;2023-03-31T13:15:37;32.30;;;5.50;;
19609;SDS011;9952;47.122;-1.638;2023-03-31T13:20:36;25.20;;;5.47;;
19609;SDS011;9952;47.122;-1.638;2023-03-31T13:30:47;25.80;;;5.07;;
19609;SDS011;9952;47.122;-1.638;2023-03-31T13:35:34;28.53;;;5.37;;
19609;SDS011;9952;47.122;-1.638;2023-03-31T13:55:11;32.30;;;6.10;;
19609;SDS011;9952;47.122;-1.638;2023-03-31T14:00:19;40.77;;;5.87;;
19609;SDS011;9952;47.122;-1.638;2023-03-31T14:05:11;38.80;;;6.10;;
19609;SDS011;9952;47.122;-1.638;2023-03-31T14:15:16;34.97;;;5.47;;
19609;SDS011;9952;47.122;-1.638;2023-03-31T14:20:06;29.43;;;5.67;;
19609;SDS011;9952;47.122;-1.638;2023-03-31T14:40:12;37.43;;;6.03;;
19609;SDS011;9952;47.122;-1.638;2023-03-31T14:44:56;36.43;;;6.07;;
19609;SDS011;9952;47.122;-1.638;2023-03-31T14:49:40;44.37;;;6.30;;
19609;SDS011;9952;47.122;-1.638;2023-03-31T14:54:21;39.50;;;5.93;;
19609;SDS011;9952;47.122;-1.638;2023-03-31T14:59:02;31.93;;;5.90;;
19609;SDS011;9952;47.122;-1.638;2023-03-31T15:03:45;35.47;;;6.23;;
19609;SDS011;9952;47.122;-1.638;2023-03-31T15:08:26;32.43;;;5.40;;
19609;SDS011;9952;47.122;-1.638;2023-03-31T15:13:10;24.70;;;4.33;;
19609;SDS011;9952;47.122;-1.638;2023-03-31T15:17:55;21.20;;;3.07;;
19609;SDS011;9952;47.122;-1.638;2023-03-31T15:22:36;20.93;;;3.40;;
19609;SDS011;9952;47.122;-1.638;2023-03-31T15:32:06;32.23;;;4.53;;
19609;SDS011;9952;47.122;-1.638;2023-03-31T15:36:57;32.63;;;5.20;;
19609;SDS011;9952;47.122;-1.638;2023-03-31T15:41:38;33.87;;;5.17;;
19609;SDS011;9952;47.122;-1.638;2023-03-31T15:46:23;43.10;;;5.20;;
19609;SDS011;9952;47.122;-1.638;2023-03-31T15:51:27;41.53;;;5.77;;
19609;SDS011;9952;47.122;-1.638;2023-03-31T16:01:09;38.07;;;5.47;;
19609;SDS011;9952;47.122;-1.638;2023-03-31T16:05:53;37.13;;;4.67;;
19609;SDS011;9952;47.122;-1.638;2023-03-31T16:10:35;39.50;;;5.60;;
19609;SDS011;9952;47.122;-1.638;2023-03-31T16:15:17;32.07;;;5.17;;
19609;SDS011;9952;47.122;-1.638;2023-03-31T16:20:27;33.93;;;4.83;;
19609;SDS011;9952;47.122;-1.638;2023-03-31T16:25:13;40.03;;;5.50;;
19609;SDS011;9952;47.122;-1.638;2023-03-31T16:30:11;30.77;;;5.47;;
19609;SDS011;9952;47.122;-1.638;2023-03-31T16:34:55;30.43;;;4.87;;
19609;SDS011;9952;47.122;-1.638;2023-03-31T16:39:41;35.87;;;5.80;;
19609;SDS011;9952;47.122;-1.638;2023-03-31T16:44:21;43.37;;;5.67;;
19609;SDS011;9952;47.122;-1.638;2023-03-31T16:49:02;33.53;;;5.90;;
19609;SDS011;9952;47.122;-1.638;2023-03-31T16:53:43;46.50;;;6.63;;
19609;SDS011;9952;47.122;-1.638;2023-03-31T16:58:26;32.23;;;5.23;;
19609;SDS011;9952;47.122;-1.638;2023-03-31T17:03:11;37.40;;;7.13;;
19609;SDS011;9952;47.122;-1.638;2023-03-31T17:07:53;35.63;;;6.50;;
19609;SDS011;9952;47.122;-1.638;2023-03-31T17:12:33;35.07;;;4.97;;
19609;SDS011;9952;47.122;-1.638;2023-03-31T17:17:14;38.23;;;5.53;;
19609;SDS011;9952;47.122;-1.638;2023-03-31T17:21:55;31.53;;;6.07;;
19609;SDS011;9952;47.122;-1.638;2023-03-31T17:26:40;33.80;;;5.93;;
19609;SDS011;9952;47.122;-1.638;2023-03-31T17:31:21;32.70;;;5.83;;
19609;SDS011;9952;47.122;-1.638;2023-03-31T17:36:03;38.07;;;5.10;;
19609;SDS011;9952;47.122;-1.638;2023-03-31T17:40:44;36.57;;;6.13;;
19609;SDS011;9952;47.122;-1.638;2023-03-31T17:45:26;34.30;;;5.97;;
19609;SDS011;9952;47.122;-1.638;2023-03-31T17:50:08;40.50;;;6.47;;
19609;SDS011;9952;47.122;-1.638;2023-03-31T17:54:50;33.63;;;6.47;;
19609;SDS011;9952;47.122;-1.638;2023-03-31T17:59:31;42.77;;;5.90;;
19609;SDS011;9952;47.122;-1.638;2023-03-31T18:04:12;38.67;;;6.43;;
19609;SDS011;9952;47.122;-1.638;2023-03-31T18:08:54;40.40;;;6.20;;
19609;SDS011;9952;47.122;-1.638;2023-03-31T18:13:36;35.67;;;5.93;;
19609;SDS011;9952;47.122;-1.638;2023-03-31T18:18:17;43.53;;;6.10;;
19609;SDS011;9952;47.122;-1.638;2023-03-31T18:22:59;38.87;;;6.20;;
19609;SDS011;9952;47.122;-1.638;2023-03-31T18:27:40;43.30;;;6.73;;
19609;SDS011;9952;47.122;-1.638;2023-03-31T18:32:21;44.70;;;6.50;;
19609;SDS011;9952;47.122;-1.638;2023-03-31T18:37:02;50.57;;;8.07;;
19609;SDS011;9952;47.122;-1.638;2023-03-31T18:41:45;50.20;;;7.73;;
19609;SDS011;9952;47.122;-1.638;2023-03-31T18:46:27;41.80;;;7.03;;
19609;SDS011;9952;47.122;-1.638;2023-03-31T18:51:08;38.70;;;5.73;;
19609;SDS011;9952;47.122;-1.638;2023-03-31T18:55:50;50.50;;;7.57;;
19609;SDS011;9952;47.122;-1.638;2023-03-31T19:00:31;43.63;;;6.40;;
19609;SDS011;9952;47.122;-1.638;2023-03-31T19:05:12;32.33;;;4.87;;
19609;SDS011;9952;47.122;-1.638;2023-03-31T19:09:53;32.53;;;5.13;;
19609;SDS011;9952;47.122;-1.638;2023-03-31T19:14:34;33.10;;;5.10;;
19609;SDS011;9952;47.122;-1.638;2023-03-31T19:19:15;34.60;;;5.87;;
19609;SDS011;9952;47.122;-1.638;2023-03-31T19:23:56;37.90;;;5.87;;
19609;SDS011;9952;47.122;-1.638;2023-03-31T19:28:37;40.70;;;5.13;;
19609;SDS011;9952;47.122;-1.638;2023-03-31T19:33:18;31.37;;;5.20;;
19609;SDS011;9952;47.122;-1.638;2023-03-31T19:37:59;33.70;;;5.77;;
19609;SDS011;9952;47.122;-1.638;2023-03-31T19:42:40;36.17;;;5.83;;
19609;SDS011;9952;47.122;-1.638;2023-03-31T19:47:23;40.37;;;5.13;;
19609;SDS011;9952;47.122;-1.638;2023-03-31T19:52:04;30.60;;;5.20;;
19609;SDS011;9952;47.122;-1.638;2023-03-31T19:56:45;37.13;;;6.17;;
19609;SDS011;9952;47.122;-1.638;2023-03-31T20:01:28;38.87;;;6.27;;
19609;SDS011;9952;47.122;-1.638;2023-03-31T20:06:10;40.63;;;6.17;;
19609;SDS011;9952;47.122;-1.638;2023-03-31T20:10:57;40.27;;;6.90;;
19609;SDS011;9952;47.122;-1.638;2023-03-31T20:15:38;47.97;;;6.83;;
19609;SDS011;9952;47.122;-1.638;2023-03-31T20:20:20;49.73;;;7.00;;
19609;SDS011;9952;47.122;-1.638;2023-03-31T20:25:01;40.50;;;6.40;;
19609;SDS011;9952;47.122;-1.638;2023-03-31T20:29:42;42.27;;;6.87;;
19609;SDS011;9952;47.122;-1.638;2023-03-31T20:34:23;45.20;;;7.03;;
19609;SDS011;9952;47.122;-1.638;2023-03-31T20:39:06;41.27;;;5.93;;
19609;SDS011;9952;47.122;-1.638;2023-03-31T20:43:48;43.87;;;6.37;;
19609;SDS011;9952;47.122;-1.638;2023-03-31T20:48:30;32.70;;;5.30;;
19609;SDS011;9952;47.122;-1.638;2023-03-31T20:53:15;33.97;;;5.17;;
19609;SDS011;9952;47.122;-1.638;2023-03-31T20:57:55;29.57;;;5.47;;
19609;SDS011;9952;47.122;-1.638;2023-03-31T21:02:37;37.13;;;6.27;;
19609;SDS011;9952;47.122;-1.638;2023-03-31T21:07:18;33.53;;;6.07;;
19609;SDS011;9952;47.122;-1.638;2023-03-31T21:11:59;33.83;;;5.83;;
19609;SDS011;9952;47.122;-1.638;2023-03-31T21:16:41;31.10;;;5.10;;
19609;SDS011;9952;47.122;-1.638;2023-03-31T21:21:22;25.87;;;3.93;;
19609;SDS011;9952;47.122;-1.638;2023-03-31T21:26:04;31.33;;;5.33;;
19609;SDS011;9952;47.122;-1.638;2023-03-31T21:30:49;36.13;;;5.70;;
19609;SDS011;9952;47.122;-1.638;2023-03-31T21:35:32;33.40;;;5.03;;
19609;SDS011;9952;47.122;-1.638;2023-03-31T21:40:13;36.77;;;5.07;;
19609;SDS011;9952;47.122;-1.638;2023-03-31T21:44:55;30.93;;;5.47;;
19609;SDS011;9952;47.122;-1.638;2023-03-31T21:49:37;36.07;;;5.17;;
19609;SDS011;9952;47.122;-1.638;2023-03-31T21:54:18;37.73;;;5.10;;
19609;SDS011;9952;47.122;-1.638;2023-03-31T21:59:00;35.90;;;5.20;;
19609;SDS011;9952;47.122;-1.638;2023-03-31T22:03:41;34.00;;;4.90;;
19609;SDS011;9952;47.122;-1.638;2023-03-31T22:08:22;28.03;;;4.23;;
19609;SDS011;9952;47.122;-1.638;2023-03-31T22:13:03;25.40;;;4.23;;
19609;SDS011;9952;47.122;-1.638;2023-03-31T22:17:44;22.53;;;3.90;;
19609;SDS011;9952;47.122;-1.638;2023-03-31T22:22:25;22.93;;;3.60;;
19609;SDS011;9952;47.122;-1.638;2023-03-31T22:27:05;30.90;;;4.37;;
19609;SDS011;9952;47.122;-1.638;2023-03-31T22:31:46;26.00;;;4.77;;
19609;SDS011;9952;47.122;-1.638;2023-03-31T22:36:27;27.30;;;4.80;;
19609;SDS011;9952;47.122;-1.638;2023-03-31T22:41:08;30.90;;;4.17;;
19609;SDS011;9952;47.122;-1.638;2023-03-31T22:45:49;29.73;;;5.40;;
19609;SDS011;9952;47.122;-1.638;2023-03-31T22:50:29;29.53;;;4.53;;
19609;SDS011;9952;47.122;-1.638;2023-03-31T22:55:10;34.17;;;4.63;;
19609;SDS011;9952;47.122;-1.638;2023-03-31T22:59:51;32.33;;;5.10;;
19609;SDS011;9952;47.122;-1.638;2023-03-31T23:04:32;27.27;;;4.23;;
19609;SDS011;9952;47.122;-1.638;2023-03-31T23:09:13;26.17;;;4.10;;
19609;SDS011;9952;47.122;-1.638;2023-03-31T23:13:54;33.73;;;4.30;;
19609;SDS011;9952;47.122;-1.638;2023-03-31T23:18:35;26.57;;;3.63;;
19609;SDS011;9952;47.122;-1.638;2023-03-31T23:23:19;27.17;;;4.70;;
19609;SDS011;9952;47.122;-1.638;2023-03-31T23:27:59;31.20;;;5.20;;
19609;SDS011;9952;47.122;-1.638;2023-03-31T23:32:41;30.43;;;4.17;;
19609;SDS011;9952;47.122;-1.638;2023-03-31T23:37:21;33.33;;;4.33;;
19609;SDS011;9952;47.122;-1.638;2023-03-31T23:42:02;38.93;;;5.07;;
19609;SDS011;9952;47.122;-1.638;2023-03-31T23:46:47;34.03;;;4.87;;
19609;SDS011;9952;47.122;-1.638;2023-03-31T23:51:27;34.83;;;4.60;;
19609;SDS011;9952;47.122;-1.638;2023-03-31T23:56:09;36.67;;;4.87;;
